sensor_id;sensor_type;location;lat;lon;timestamp;pressure;altitude;pressure_sealevel;temperature;humidity
59789;BME280;47353;51.614;5.530;2023-09-08T00:01:57;101559.69;;;19.14;83.65
59789;BME280;47353;51.614;5.530;2023-09-08T00:04:22;101563.72;;;19.08;84.21
59789;BME280;47353;51.614;5.530;2023-09-08T00:06:48;101557.41;;;19.02;84.56
59789;BME280;47353;51.614;5.530;2023-09-08T00:09:13;101559.19;;;18.98;85.91
59789;BME280;47353;51.614;5.530;2023-09-08T00:11:39;101559.63;;;18.92;85.64
59789;BME280;47353;51.614;5.530;2023-09-08T00:14:04;101554.13;;;18.87;86.21
59789;BME280;47353;51.614;5.530;2023-09-08T00:16:30;101551.00;;;18.88;86.50
59789;BME280;47353;51.614;5.530;2023-09-08T00:18:56;101555.06;;;18.82;86.94
59789;BME280;47353;51.614;5.530;2023-09-08T00:21:24;101557.03;;;18.82;87.05
59789;BME280;47353;51.614;5.530;2023-09-08T00:23:49;101562.03;;;18.71;86.93
59789;BME280;47353;51.614;5.530;2023-09-08T00:26:14;101561.66;;;18.64;88.08
59789;BME280;47353;51.614;5.530;2023-09-08T00:28:40;101567.13;;;18.69;87.38
59789;BME280;47353;51.614;5.530;2023-09-08T00:31:05;101569.31;;;18.59;87.48
59789;BME280;47353;51.614;5.530;2023-09-08T00:33:30;101564.16;;;18.52;88.81
59789;BME280;47353;51.614;5.530;2023-09-08T00:35:56;101559.56;;;18.56;88.05
59789;BME280;47353;51.614;5.530;2023-09-08T00:38:22;101563.00;;;18.53;88.78
59789;BME280;47353;51.614;5.530;2023-09-08T00:40:48;101565.91;;;18.48;88.93
59789;BME280;47353;51.614;5.530;2023-09-08T00:43:14;101562.88;;;18.45;89.09
59789;BME280;47353;51.614;5.530;2023-09-08T00:45:42;101558.75;;;18.42;89.24
59789;BME280;47353;51.614;5.530;2023-09-08T00:48:08;101563.38;;;18.33;89.73
59789;BME280;47353;51.614;5.530;2023-09-08T00:50:35;101562.06;;;18.31;91.28
59789;BME280;47353;51.614;5.530;2023-09-08T00:53:02;101566.28;;;18.28;91.16
59789;BME280;47353;51.614;5.530;2023-09-08T00:55:29;101567.53;;;18.22;90.82
59789;BME280;47353;51.614;5.530;2023-09-08T00:57:54;101559.56;;;18.29;90.30
59789;BME280;47353;51.614;5.530;2023-09-08T01:00:20;101554.13;;;18.19;91.19
59789;BME280;47353;51.614;5.530;2023-09-08T01:02:45;101558.28;;;18.21;90.75
59789;BME280;47353;51.614;5.530;2023-09-08T01:05:11;101559.34;;;18.12;91.87
59789;BME280;47353;51.614;5.530;2023-09-08T01:07:40;101550.72;;;18.08;91.56
59789;BME280;47353;51.614;5.530;2023-09-08T01:10:06;101557.44;;;18.07;92.28
59789;BME280;47353;51.614;5.530;2023-09-08T01:12:32;101552.44;;;18.04;92.35
59789;BME280;47353;51.614;5.530;2023-09-08T01:15:02;101554.00;;;17.97;92.40
59789;BME280;47353;51.614;5.530;2023-09-08T01:17:27;101554.84;;;17.97;92.48
59789;BME280;47353;51.614;5.530;2023-09-08T01:19:55;101556.19;;;18.00;92.67
59789;BME280;47353;51.614;5.530;2023-09-08T01:27:46;101561.28;;;17.98;92.30
59789;BME280;47353;51.614;5.530;2023-09-08T01:30:12;101554.75;;;17.89;93.27
59789;BME280;47353;51.614;5.530;2023-09-08T01:32:38;101561.25;;;17.84;93.47
59789;BME280;47353;51.614;5.530;2023-09-08T01:35:05;101561.84;;;17.81;94.08
59789;BME280;47353;51.614;5.530;2023-09-08T01:37:31;101557.19;;;17.77;94.21
59789;BME280;47353;51.614;5.530;2023-09-08T01:39:57;101560.81;;;17.77;94.42
59789;BME280;47353;51.614;5.530;2023-09-08T01:42:22;101555.50;;;17.62;94.32
59789;BME280;47353;51.614;5.530;2023-09-08T01:44:47;101567.34;;;17.73;94.31
59789;BME280;47353;51.614;5.530;2023-09-08T01:47:13;101558.72;;;17.69;95.37
59789;BME280;47353;51.614;5.530;2023-09-08T01:49:38;101570.72;;;17.56;96.14
59789;BME280;47353;51.614;5.530;2023-09-08T01:52:04;101563.38;;;17.60;95.29
59789;BME280;47353;51.614;5.530;2023-09-08T01:54:30;101555.88;;;17.56;96.09
59789;BME280;47353;51.614;5.530;2023-09-08T01:56:55;101560.63;;;17.55;95.64
59789;BME280;47353;51.614;5.530;2023-09-08T01:59:21;101562.16;;;17.48;95.50
59789;BME280;47353;51.614;5.530;2023-09-08T02:01:46;101542.13;;;17.41;96.48
59789;BME280;47353;51.614;5.530;2023-09-08T02:04:11;101554.63;;;17.48;96.20
59789;BME280;47353;51.614;5.530;2023-09-08T02:06:37;101546.84;;;17.45;96.22
59789;BME280;47353;51.614;5.530;2023-09-08T02:09:03;101559.41;;;17.43;96.68
59789;BME280;47353;51.614;5.530;2023-09-08T02:11:29;101563.75;;;17.35;97.38
59789;BME280;47353;51.614;5.530;2023-09-08T02:13:54;101553.47;;;17.31;97.90
59789;BME280;47353;51.614;5.530;2023-09-08T02:16:19;101547.13;;;17.25;98.59
59789;BME280;47353;51.614;5.530;2023-09-08T02:18:45;101552.66;;;17.30;98.27
59789;BME280;47353;51.614;5.530;2023-09-08T02:21:11;101554.38;;;17.26;98.50
59789;BME280;47353;51.614;5.530;2023-09-08T02:23:36;101546.59;;;17.23;98.48
59789;BME280;47353;51.614;5.530;2023-09-08T02:26:02;101544.94;;;17.22;98.98
59789;BME280;47353;51.614;5.530;2023-09-08T02:28:27;101538.06;;;17.15;99.17
59789;BME280;47353;51.614;5.530;2023-09-08T02:30:53;101545.25;;;17.21;98.92
59789;BME280;47353;51.614;5.530;2023-09-08T02:33:19;101547.28;;;17.15;98.95
59789;BME280;47353;51.614;5.530;2023-09-08T02:35:44;101543.06;;;17.18;99.48
59789;BME280;47353;51.614;5.530;2023-09-08T02:38:10;101540.41;;;17.08;100.00
59789;BME280;47353;51.614;5.530;2023-09-08T02:40:35;101538.16;;;17.10;100.00
59789;BME280;47353;51.614;5.530;2023-09-08T02:43:01;101537.38;;;17.04;100.00
59789;BME280;47353;51.614;5.530;2023-09-08T02:45:27;101542.53;;;16.97;100.00
59789;BME280;47353;51.614;5.530;2023-09-08T02:47:53;101541.09;;;17.00;100.00
59789;BME280;47353;51.614;5.530;2023-09-08T02:50:18;101545.63;;;16.96;100.00
59789;BME280;47353;51.614;5.530;2023-09-08T02:52:44;101540.66;;;16.93;100.00
59789;BME280;47353;51.614;5.530;2023-09-08T02:55:11;101549.69;;;16.85;100.00
59789;BME280;47353;51.614;5.530;2023-09-08T02:57:37;101546.91;;;16.85;100.00
59789;BME280;47353;51.614;5.530;2023-09-08T03:00:04;101545.56;;;16.82;100.00
59789;BME280;47353;51.614;5.530;2023-09-08T03:02:30;101537.78;;;16.79;100.00
59789;BME280;47353;51.614;5.530;2023-09-08T03:04:56;101549.25;;;16.78;100.00
59789;BME280;47353;51.614;5.530;2023-09-08T03:07:22;101541.84;;;16.68;100.00
59789;BME280;47353;51.614;5.530;2023-09-08T03:09:47;101546.22;;;16.74;100.00
59789;BME280;47353;51.614;5.530;2023-09-08T03:12:13;101543.50;;;16.69;100.00
59789;BME280;47353;51.614;5.530;2023-09-08T03:14:38;101546.38;;;16.64;100.00
59789;BME280;47353;51.614;5.530;2023-09-08T03:17:03;101544.09;;;16.66;100.00
59789;BME280;47353;51.614;5.530;2023-09-08T03:19:29;101542.75;;;16.63;100.00
59789;BME280;47353;51.614;5.530;2023-09-08T03:21:54;101535.78;;;16.61;100.00
59789;BME280;47353;51.614;5.530;2023-09-08T03:24:20;101540.00;;;16.58;100.00
59789;BME280;47353;51.614;5.530;2023-09-08T03:26:45;101543.94;;;16.57;100.00
59789;BME280;47353;51.614;5.530;2023-09-08T03:29:10;101534.19;;;16.55;100.00
59789;BME280;47353;51.614;5.530;2023-09-08T03:31:36;101542.94;;;16.48;100.00
59789;BME280;47353;51.614;5.530;2023-09-08T03:34:01;101537.56;;;16.52;100.00
59789;BME280;47353;51.614;5.530;2023-09-08T03:36:27;101544.59;;;16.49;100.00
59789;BME280;47353;51.614;5.530;2023-09-08T03:38:52;101539.34;;;16.43;100.00
59789;BME280;47353;51.614;5.530;2023-09-08T03:41:17;101532.38;;;16.45;100.00
59789;BME280;47353;51.614;5.530;2023-09-08T03:43:43;101542.44;;;16.41;100.00
59789;BME280;47353;51.614;5.530;2023-09-08T03:46:08;101537.16;;;16.40;100.00
59789;BME280;47353;51.614;5.530;2023-09-08T03:48:34;101532.69;;;16.39;100.00
59789;BME280;47353;51.614;5.530;2023-09-08T03:50:59;101526.88;;;16.35;100.00
59789;BME280;47353;51.614;5.530;2023-09-08T03:53:25;101535.25;;;16.35;100.00
59789;BME280;47353;51.614;5.530;2023-09-08T03:55:51;101535.91;;;16.27;100.00
59789;BME280;47353;51.614;5.530;2023-09-08T03:58:16;101527.75;;;16.31;100.00
59789;BME280;47353;51.614;5.530;2023-09-08T04:00:42;101528.31;;;16.33;100.00
59789;BME280;47353;51.614;5.530;2023-09-08T04:03:08;101529.41;;;16.32;100.00
59789;BME280;47353;51.614;5.530;2023-09-08T04:05:34;101523.06;;;16.26;100.00
59789;BME280;47353;51.614;5.530;2023-09-08T04:07:59;101521.94;;;16.27;100.00
59789;BME280;47353;51.614;5.530;2023-09-08T04:10:25;101535.75;;;16.19;100.00
59789;BME280;47353;51.614;5.530;2023-09-08T04:12:50;101526.75;;;16.22;100.00
59789;BME280;47353;51.614;5.530;2023-09-08T04:15:16;101511.25;;;16.11;100.00
59789;BME280;47353;51.614;5.530;2023-09-08T04:17:41;101521.81;;;16.14;100.00
59789;BME280;47353;51.614;5.530;2023-09-08T04:20:07;101528.25;;;16.14;100.00
59789;BME280;47353;51.614;5.530;2023-09-08T04:22:34;101528.00;;;16.11;100.00
59789;BME280;47353;51.614;5.530;2023-09-08T04:25:00;101518.03;;;16.05;100.00
59789;BME280;47353;51.614;5.530;2023-09-08T04:27:26;101515.78;;;16.07;100.00
59789;BME280;47353;51.614;5.530;2023-09-08T04:29:51;101513.88;;;16.02;100.00
59789;BME280;47353;51.614;5.530;2023-09-08T04:32:16;101522.47;;;16.06;100.00
59789;BME280;47353;51.614;5.530;2023-09-08T04:34:43;101516.13;;;16.00;100.00
59789;BME280;47353;51.614;5.530;2023-09-08T04:37:09;101517.22;;;15.99;100.00
59789;BME280;47353;51.614;5.530;2023-09-08T04:39:35;101517.78;;;16.01;100.00
59789;BME280;47353;51.614;5.530;2023-09-08T04:42:02;101512.78;;;15.98;100.00
59789;BME280;47353;51.614;5.530;2023-09-08T04:44:28;101522.81;;;15.99;100.00
59789;BME280;47353;51.614;5.530;2023-09-08T04:46:54;101517.53;;;15.98;100.00
59789;BME280;47353;51.614;5.530;2023-09-08T04:49:19;101528.19;;;15.96;100.00
59789;BME280;47353;51.614;5.530;2023-09-08T04:51:45;101524.59;;;15.90;100.00
59789;BME280;47353;51.614;5.530;2023-09-08T04:54:10;101516.81;;;15.87;100.00
59789;BME280;47353;51.614;5.530;2023-09-08T04:56:38;101519.59;;;15.87;100.00
59789;BME280;47353;51.614;5.530;2023-09-08T04:59:04;101517.41;;;15.84;100.00
59789;BME280;47353;51.614;5.530;2023-09-08T05:01:29;101528.81;;;15.88;100.00
59789;BME280;47353;51.614;5.530;2023-09-08T05:04:00;101521.59;;;15.87;100.00
59789;BME280;47353;51.614;5.530;2023-09-08T05:06:26;101523.78;;;15.90;100.00
59789;BME280;47353;51.614;5.530;2023-09-08T05:08:51;101522.41;;;15.87;100.00
59789;BME280;47353;51.614;5.530;2023-09-08T05:11:17;101521.50;;;15.92;100.00
59789;BME280;47353;51.614;5.530;2023-09-08T05:13:44;101522.94;;;15.89;100.00
59789;BME280;47353;51.614;5.530;2023-09-08T05:16:10;101529.13;;;15.86;100.00
59789;BME280;47353;51.614;5.530;2023-09-08T05:18:39;101514.88;;;15.88;100.00
59789;BME280;47353;51.614;5.530;2023-09-08T05:21:04;101527.19;;;15.87;100.00
59789;BME280;47353;51.614;5.530;2023-09-08T05:23:30;101533.78;;;15.96;100.00
59789;BME280;47353;51.614;5.530;2023-09-08T05:25:55;101532.69;;;15.92;100.00
59789;BME280;47353;51.614;5.530;2023-09-08T05:28:21;101525.16;;;15.92;100.00
59789;BME280;47353;51.614;5.530;2023-09-08T05:30:46;101532.03;;;16.00;100.00
59789;BME280;47353;51.614;5.530;2023-09-08T05:33:11;101533.47;;;15.97;100.00
59789;BME280;47353;51.614;5.530;2023-09-08T05:35:37;101538.63;;;16.09;100.00
59789;BME280;47353;51.614;5.530;2023-09-08T05:38:03;101546.72;;;16.10;100.00
59789;BME280;47353;51.614;5.530;2023-09-08T05:40:28;101539.19;;;16.11;100.00
59789;BME280;47353;51.614;5.530;2023-09-08T05:42:54;101545.53;;;16.16;100.00
59789;BME280;47353;51.614;5.530;2023-09-08T05:45:20;101543.56;;;16.17;100.00
59789;BME280;47353;51.614;5.530;2023-09-08T05:47:45;101546.03;;;16.23;100.00
59789;BME280;47353;51.614;5.530;2023-09-08T05:50:10;101555.75;;;16.26;100.00
59789;BME280;47353;51.614;5.530;2023-09-08T05:52:36;101552.16;;;16.25;100.00
59789;BME280;47353;51.614;5.530;2023-09-08T05:55:01;101560.16;;;16.32;100.00
59789;BME280;47353;51.614;5.530;2023-09-08T05:57:27;101559.56;;;16.35;100.00
59789;BME280;47353;51.614;5.530;2023-09-08T05:59:52;101551.66;;;16.42;100.00
59789;BME280;47353;51.614;5.530;2023-09-08T06:02:18;101551.94;;;16.45;100.00
59789;BME280;47353;51.614;5.530;2023-09-08T06:04:43;101550.44;;;16.53;100.00
59789;BME280;47353;51.614;5.530;2023-09-08T06:07:09;101553.13;;;16.58;100.00
59789;BME280;47353;51.614;5.530;2023-09-08T06:09:34;101549.44;;;16.62;100.00
59789;BME280;47353;51.614;5.530;2023-09-08T06:12:00;101554.66;;;16.69;100.00
59789;BME280;47353;51.614;5.530;2023-09-08T06:14:25;101559.84;;;16.81;100.00
59789;BME280;47353;51.614;5.530;2023-09-08T06:16:51;101560.59;;;16.86;100.00
59789;BME280;47353;51.614;5.530;2023-09-08T06:19:16;101557.88;;;17.00;100.00
59789;BME280;47353;51.614;5.530;2023-09-08T06:21:41;101565.22;;;17.14;100.00
59789;BME280;47353;51.614;5.530;2023-09-08T06:24:07;101562.03;;;17.39;100.00
59789;BME280;47353;51.614;5.530;2023-09-08T06:26:33;101566.31;;;17.69;100.00
59789;BME280;47353;51.614;5.530;2023-09-08T06:28:58;101558.13;;;17.86;100.00
59789;BME280;47353;51.614;5.530;2023-09-08T06:31:23;101558.50;;;18.11;100.00
59789;BME280;47353;51.614;5.530;2023-09-08T06:33:49;101572.19;;;18.26;100.00
59789;BME280;47353;51.614;5.530;2023-09-08T06:36:18;101563.59;;;18.37;99.90
59789;BME280;47353;51.614;5.530;2023-09-08T06:38:43;101572.88;;;18.51;99.31
59789;BME280;47353;51.614;5.530;2023-09-08T06:41:10;101578.25;;;18.61;98.69
59789;BME280;47353;51.614;5.530;2023-09-08T06:43:36;101572.63;;;18.74;96.04
59789;BME280;47353;51.614;5.530;2023-09-08T06:46:02;101574.72;;;18.69;97.24
59789;BME280;47353;51.614;5.530;2023-09-08T06:48:27;101580.56;;;18.72;96.33
59789;BME280;47353;51.614;5.530;2023-09-08T06:50:53;101569.66;;;18.71;96.42
59789;BME280;47353;51.614;5.530;2023-09-08T06:53:24;101576.28;;;18.75;96.38
59789;BME280;47353;51.614;5.530;2023-09-08T06:55:49;101577.44;;;18.74;97.66
59789;BME280;47353;51.614;5.530;2023-09-08T06:58:15;101581.97;;;18.83;96.48
59789;BME280;47353;51.614;5.530;2023-09-08T07:00:41;101582.59;;;18.94;95.70
59789;BME280;47353;51.614;5.530;2023-09-08T07:03:07;101589.19;;;19.11;94.94
59789;BME280;47353;51.614;5.530;2023-09-08T07:05:34;101582.13;;;19.14;96.95
59789;BME280;47353;51.614;5.530;2023-09-08T07:07:59;101592.47;;;19.27;95.42
59789;BME280;47353;51.614;5.530;2023-09-08T07:10:24;101592.44;;;19.40;94.21
59789;BME280;47353;51.614;5.530;2023-09-08T07:12:50;101592.47;;;19.62;93.83
59789;BME280;47353;51.614;5.530;2023-09-08T07:15:15;101589.47;;;19.81;92.74
59789;BME280;47353;51.614;5.530;2023-09-08T07:17:41;101588.56;;;19.94;91.06
59789;BME280;47353;51.614;5.530;2023-09-08T07:20:07;101595.66;;;20.14;93.20
59789;BME280;47353;51.614;5.530;2023-09-08T07:22:33;101588.09;;;20.31;90.26
59789;BME280;47353;51.614;5.530;2023-09-08T07:24:58;101589.03;;;20.49;89.57
59789;BME280;47353;51.614;5.530;2023-09-08T07:27:24;101591.72;;;20.62;88.11
59789;BME280;47353;51.614;5.530;2023-09-08T07:29:49;101590.47;;;20.85;87.41
59789;BME280;47353;51.614;5.530;2023-09-08T07:32:16;101593.69;;;21.18;89.74
59789;BME280;47353;51.614;5.530;2023-09-08T07:34:41;101593.88;;;21.56;84.97
59789;BME280;47353;51.614;5.530;2023-09-08T07:37:07;101588.03;;;22.03;81.74
59789;BME280;47353;51.614;5.530;2023-09-08T07:39:32;101604.47;;;22.47;79.74
59789;BME280;47353;51.614;5.530;2023-09-08T07:41:58;101599.28;;;22.95;77.88
59789;BME280;47353;51.614;5.530;2023-09-08T07:44:24;101596.75;;;23.32;75.66
59789;BME280;47353;51.614;5.530;2023-09-08T07:46:49;101598.34;;;23.74;74.81
59789;BME280;47353;51.614;5.530;2023-09-08T07:49:17;101594.47;;;24.43;71.58
59789;BME280;47353;51.614;5.530;2023-09-08T07:51:46;101586.03;;;24.80;69.72
59789;BME280;47353;51.614;5.530;2023-09-08T07:54:11;101594.78;;;25.26;69.39
59789;BME280;47353;51.614;5.530;2023-09-08T07:56:36;101592.44;;;25.80;65.92
59789;BME280;47353;51.614;5.530;2023-09-08T07:59:02;101597.16;;;26.31;63.48
59789;BME280;47353;51.614;5.530;2023-09-08T08:01:27;101597.88;;;26.90;60.90
59789;BME280;47353;51.614;5.530;2023-09-08T08:03:53;101600.78;;;27.44;60.03
59789;BME280;47353;51.614;5.530;2023-09-08T08:06:18;101601.88;;;27.93;57.34
59789;BME280;47353;51.614;5.530;2023-09-08T08:08:44;101593.47;;;28.42;55.32
59789;BME280;47353;51.614;5.530;2023-09-08T08:11:13;101598.06;;;28.95;54.12
59789;BME280;47353;51.614;5.530;2023-09-08T08:13:39;101586.78;;;29.54;54.27
59789;BME280;47353;51.614;5.530;2023-09-08T08:16:05;101590.34;;;29.48;50.96
59789;BME280;47353;51.614;5.530;2023-09-08T08:18:30;101591.09;;;30.04;53.51
59789;BME280;47353;51.614;5.530;2023-09-08T08:20:56;101591.69;;;30.20;47.38
59789;BME280;47353;51.614;5.530;2023-09-08T08:23:21;101605.00;;;30.82;48.70
59789;BME280;47353;51.614;5.530;2023-09-08T08:25:48;101590.28;;;31.31;45.15
59789;BME280;47353;51.614;5.530;2023-09-08T08:28:14;101595.28;;;31.48;43.35
59789;BME280;47353;51.614;5.530;2023-09-08T08:30:39;101605.22;;;31.75;44.12
59789;BME280;47353;51.614;5.530;2023-09-08T08:33:05;101604.50;;;31.95;46.18
59789;BME280;47353;51.614;5.530;2023-09-08T08:35:31;101594.78;;;32.31;42.26
59789;BME280;47353;51.614;5.530;2023-09-08T08:37:58;101606.72;;;32.72;42.27
59789;BME280;47353;51.614;5.530;2023-09-08T08:40:24;101604.28;;;32.85;41.13
59789;BME280;47353;51.614;5.530;2023-09-08T08:42:54;101609.97;;;33.34;40.81
59789;BME280;47353;51.614;5.530;2023-09-08T08:45:22;101602.63;;;33.29;38.58
59789;BME280;47353;51.614;5.530;2023-09-08T08:47:49;101605.06;;;33.34;39.20
59789;BME280;47353;51.614;5.530;2023-09-08T08:50:16;101606.34;;;32.98;38.30
59789;BME280;47353;51.614;5.530;2023-09-08T08:52:42;101611.63;;;32.82;39.63
59789;BME280;47353;51.614;5.530;2023-09-08T08:55:09;101601.78;;;33.39;37.49
59789;BME280;47353;51.614;5.530;2023-09-08T08:57:52;101602.38;;;34.07;38.26
59789;BME280;47353;51.614;5.530;2023-09-08T09:00:18;101600.94;;;34.43;36.57
59789;BME280;47353;51.614;5.530;2023-09-08T09:02:44;101596.03;;;33.46;37.51
59789;BME280;47353;51.614;5.530;2023-09-08T09:05:14;101589.41;;;34.50;37.20
59789;BME280;47353;51.614;5.530;2023-09-08T09:07:41;101601.63;;;35.12;36.21
59789;BME280;47353;51.614;5.530;2023-09-08T09:10:09;101593.69;;;35.64;33.98
59789;BME280;47353;51.614;5.530;2023-09-08T09:12:38;101600.13;;;36.08;33.89
59789;BME280;47353;51.614;5.530;2023-09-08T09:15:04;101602.81;;;36.75;32.35
59789;BME280;47353;51.614;5.530;2023-09-08T09:17:33;101601.78;;;36.62;34.66
59789;BME280;47353;51.614;5.530;2023-09-08T09:20:16;101603.34;;;37.17;33.69
59789;BME280;47353;51.614;5.530;2023-09-08T09:22:46;101598.97;;;37.32;30.56
59789;BME280;47353;51.614;5.530;2023-09-08T09:25:26;101605.13;;;37.34;31.88
59789;BME280;47353;51.614;5.530;2023-09-08T09:27:54;101598.38;;;37.17;30.42
59789;BME280;47353;51.614;5.530;2023-09-08T09:30:20;101595.97;;;37.58;30.37
59789;BME280;47353;51.614;5.530;2023-09-08T09:32:46;101593.97;;;38.14;30.63
59789;BME280;47353;51.614;5.530;2023-09-08T09:35:14;101592.75;;;38.67;29.72
59789;BME280;47353;51.614;5.530;2023-09-08T09:37:40;101591.09;;;39.14;29.39
59789;BME280;47353;51.614;5.530;2023-09-08T09:40:07;101591.31;;;39.51;28.08
59789;BME280;47353;51.614;5.530;2023-09-08T09:42:33;101595.88;;;39.94;28.23
59789;BME280;47353;51.614;5.530;2023-09-08T09:45:00;101587.84;;;39.85;27.23
59789;BME280;47353;51.614;5.530;2023-09-08T09:47:26;101587.44;;;38.46;28.74
59789;BME280;47353;51.614;5.530;2023-09-08T09:49:52;101589.22;;;39.52;28.13
59789;BME280;47353;51.614;5.530;2023-09-08T09:52:22;101590.66;;;40.01;27.44
59789;BME280;47353;51.614;5.530;2023-09-08T09:54:57;101594.47;;;40.27;26.35
59789;BME280;47353;51.614;5.530;2023-09-08T09:57:23;101592.63;;;40.04;26.46
59789;BME280;47353;51.614;5.530;2023-09-08T09:59:48;101592.00;;;40.63;26.45
59789;BME280;47353;51.614;5.530;2023-09-08T10:02:16;101597.13;;;40.59;26.11
59789;BME280;47353;51.614;5.530;2023-09-08T10:04:45;101596.09;;;40.90;25.56
59789;BME280;47353;51.614;5.530;2023-09-08T10:07:12;101591.06;;;41.50;25.37
59789;BME280;47353;51.614;5.530;2023-09-08T10:09:38;101585.63;;;42.26;24.21
59789;BME280;47353;51.614;5.530;2023-09-08T10:12:05;101587.97;;;42.40;24.01
59789;BME280;47353;51.614;5.530;2023-09-08T10:14:32;101580.06;;;42.89;23.11
59789;BME280;47353;51.614;5.530;2023-09-08T10:17:01;101580.44;;;43.00;23.54
59789;BME280;47353;51.614;5.530;2023-09-08T10:19:27;101577.84;;;43.11;22.22
59789;BME280;47353;51.614;5.530;2023-09-08T10:21:55;101578.78;;;42.99;24.07
59789;BME280;47353;51.614;5.530;2023-09-08T10:24:27;101572.16;;;42.19;23.86
59789;BME280;47353;51.614;5.530;2023-09-08T10:27:02;101571.13;;;42.35;24.54
59789;BME280;47353;51.614;5.530;2023-09-08T10:29:29;101566.56;;;42.64;23.47
59789;BME280;47353;51.614;5.530;2023-09-08T10:31:56;101582.06;;;43.82;22.36
59789;BME280;47353;51.614;5.530;2023-09-08T10:34:23;101574.25;;;44.66;21.73
59789;BME280;47353;51.614;5.530;2023-09-08T10:36:49;101577.91;;;45.08;21.09
59789;BME280;47353;51.614;5.530;2023-09-08T10:47:22;101568.91;;;44.14;22.11
59789;BME280;47353;51.614;5.530;2023-09-08T10:49:48;101569.91;;;44.85;20.87
59789;BME280;47353;51.614;5.530;2023-09-08T10:52:15;101566.50;;;45.87;19.94
59789;BME280;47353;51.614;5.530;2023-09-08T10:54:42;101559.19;;;45.67;19.75
59789;BME280;47353;51.614;5.530;2023-09-08T10:57:17;101565.97;;;45.73;19.74
59789;BME280;47353;51.614;5.530;2023-09-08T11:00:00;101565.19;;;46.17;20.44
59789;BME280;47353;51.614;5.530;2023-09-08T11:05:10;101560.81;;;46.56;18.90
59789;BME280;47353;51.614;5.530;2023-09-08T11:07:37;101564.69;;;46.82;18.53
59789;BME280;47353;51.614;5.530;2023-09-08T11:10:03;101558.31;;;46.49;19.83
59789;BME280;47353;51.614;5.530;2023-09-08T11:12:29;101555.09;;;47.42;18.82
59789;BME280;47353;51.614;5.530;2023-09-08T11:14:55;101561.78;;;47.02;18.26
59789;BME280;47353;51.614;5.530;2023-09-08T11:17:24;101555.63;;;47.20;18.89
59789;BME280;47353;51.614;5.530;2023-09-08T11:19:51;101558.78;;;46.62;18.30
59789;BME280;47353;51.614;5.530;2023-09-08T11:22:17;101555.59;;;46.02;18.94
59789;BME280;47353;51.614;5.530;2023-09-08T11:24:44;101564.25;;;46.40;18.70
59789;BME280;47353;51.614;5.530;2023-09-08T11:27:11;101559.00;;;46.58;18.76
59789;BME280;47353;51.614;5.530;2023-09-08T11:29:37;101552.31;;;44.62;20.53
59789;BME280;47353;51.614;5.530;2023-09-08T11:32:06;101556.69;;;45.60;20.33
59789;BME280;47353;51.614;5.530;2023-09-08T11:34:34;101559.97;;;45.53;19.93
59789;BME280;47353;51.614;5.530;2023-09-08T11:36:59;101548.09;;;43.52;21.30
59789;BME280;47353;51.614;5.530;2023-09-08T11:39:25;101547.00;;;44.18;21.16
59789;BME280;47353;51.614;5.530;2023-09-08T11:41:53;101544.22;;;44.66;21.19
59789;BME280;47353;51.614;5.530;2023-09-08T11:44:19;101545.19;;;45.72;19.54
59789;BME280;47353;51.614;5.530;2023-09-08T11:46:46;101551.25;;;46.12;18.51
59789;BME280;47353;51.614;5.530;2023-09-08T11:49:13;101545.28;;;46.50;19.78
59789;BME280;47353;51.614;5.530;2023-09-08T11:51:39;101540.94;;;47.40;18.82
59789;BME280;47353;51.614;5.530;2023-09-08T11:54:04;101543.50;;;47.53;17.60
59789;BME280;47353;51.614;5.530;2023-09-08T11:56:30;101542.47;;;46.75;17.90
59789;BME280;47353;51.614;5.530;2023-09-08T11:58:57;101540.28;;;47.51;19.03
59789;BME280;47353;51.614;5.530;2023-09-08T12:01:22;101539.72;;;46.86;17.46
59789;BME280;47353;51.614;5.530;2023-09-08T12:03:55;101541.59;;;46.06;19.37
59789;BME280;47353;51.614;5.530;2023-09-08T12:06:24;101534.84;;;47.64;18.67
59789;BME280;47353;51.614;5.530;2023-09-08T12:08:49;101546.19;;;46.90;17.82
59789;BME280;47353;51.614;5.530;2023-09-08T12:11:15;101536.06;;;47.32;18.56
59789;BME280;47353;51.614;5.530;2023-09-08T12:13:41;101536.03;;;47.52;17.97
59789;BME280;47353;51.614;5.530;2023-09-08T12:16:20;101538.47;;;48.04;17.75
59789;BME280;47353;51.614;5.530;2023-09-08T12:18:48;101534.69;;;46.72;18.16
59789;BME280;47353;51.614;5.530;2023-09-08T12:21:15;101535.50;;;47.28;18.89
59789;BME280;47353;51.614;5.530;2023-09-08T12:23:51;101539.59;;;46.46;19.09
59789;BME280;47353;51.614;5.530;2023-09-08T12:26:17;101529.16;;;47.14;18.39
59789;BME280;47353;51.614;5.530;2023-09-08T12:28:43;101530.41;;;47.28;17.76
59789;BME280;47353;51.614;5.530;2023-09-08T12:31:09;101523.44;;;47.71;17.88
59789;BME280;47353;51.614;5.530;2023-09-08T12:33:35;101527.16;;;48.23;17.58
59789;BME280;47353;51.614;5.530;2023-09-08T12:36:15;101529.72;;;47.39;17.95
59789;BME280;47353;51.614;5.530;2023-09-08T12:38:41;101521.22;;;46.80;18.41
59789;BME280;47353;51.614;5.530;2023-09-08T12:41:06;101513.78;;;46.99;17.95
59789;BME280;47353;51.614;5.530;2023-09-08T12:43:32;101520.00;;;47.27;17.59
59789;BME280;47353;51.614;5.530;2023-09-08T12:45:57;101518.06;;;47.44;17.64
59789;BME280;47353;51.614;5.530;2023-09-08T12:48:22;101513.94;;;48.07;17.00
59789;BME280;47353;51.614;5.530;2023-09-08T12:50:48;101513.72;;;48.47;17.57
59789;BME280;47353;51.614;5.530;2023-09-08T12:53:15;101518.56;;;48.50;16.48
59789;BME280;47353;51.614;5.530;2023-09-08T12:55:40;101507.19;;;46.50;19.40
59789;BME280;47353;51.614;5.530;2023-09-08T12:58:05;101502.41;;;47.07;19.30
59789;BME280;47353;51.614;5.530;2023-09-08T13:00:31;101510.00;;;47.19;18.44